sensor_id;sensor_type;location;lat;lon;timestamp;temperature;humidity
8269;DHT22;4174;48.304;16.364;2023-05-15T00:03:32;13.80;99.90
8269;DHT22;4174;48.304;16.364;2023-05-15T00:09:35;13.70;99.90
8269;DHT22;4174;48.304;16.364;2023-05-15T00:15:39;13.80;99.90
8269;DHT22;4174;48.304;16.364;2023-05-15T00:21:42;13.80;99.90
8269;DHT22;4174;48.304;16.364;2023-05-15T00:27:45;13.90;99.90
8269;DHT22;4174;48.304;16.364;2023-05-15T00:33:49;13.90;99.90
8269;DHT22;4174;48.304;16.364;2023-05-15T00:39:52;13.90;99.90
8269;DHT22;4174;48.304;16.364;2023-05-15T00:45:55;13.80;99.90
8269;DHT22;4174;48.304;16.364;2023-05-15T00:51:58;13.80;99.90
8269;DHT22;4174;48.304;16.364;2023-05-15T00:58:01;13.80;99.90
8269;DHT22;4174;48.304;16.364;2023-05-15T01:04:03;13.90;99.90
8269;DHT22;4174;48.304;16.364;2023-05-15T01:10:07;13.90;99.90
8269;DHT22;4174;48.304;16.364;2023-05-15T01:16:11;13.90;99.90
8269;DHT22;4174;48.304;16.364;2023-05-15T01:22:23;13.90;99.90
8269;DHT22;4174;48.304;16.364;2023-05-15T01:28:38;13.90;99.90
8269;DHT22;4174;48.304;16.364;2023-05-15T01:34:43;13.90;99.90
8269;DHT22;4174;48.304;16.364;2023-05-15T01:40:45;13.90;99.90
8269;DHT22;4174;48.304;16.364;2023-05-15T01:46:51;13.90;99.90
8269;DHT22;4174;48.304;16.364;2023-05-15T01:52:53;13.90;99.90
8269;DHT22;4174;48.304;16.364;2023-05-15T01:58:56;13.90;99.90
8269;DHT22;4174;48.304;16.364;2023-05-15T02:04:59;14.00;99.90
8269;DHT22;4174;48.304;16.364;2023-05-15T02:11:02;13.90;99.90
8269;DHT22;4174;48.304;16.364;2023-05-15T02:17:05;13.90;99.90
8269;DHT22;4174;48.304;16.364;2023-05-15T02:23:08;13.90;99.90
8269;DHT22;4174;48.304;16.364;2023-05-15T02:29:14;13.90;99.90
8269;DHT22;4174;48.304;16.364;2023-05-15T02:35:26;13.90;99.90
8269;DHT22;4174;48.304;16.364;2023-05-15T02:41:32;13.90;99.90
8269;DHT22;4174;48.304;16.364;2023-05-15T02:47:35;13.90;99.90
8269;DHT22;4174;48.304;16.364;2023-05-15T02:53:39;13.70;99.90
8269;DHT22;4174;48.304;16.364;2023-05-15T02:59:41;13.70;99.90
8269;DHT22;4174;48.304;16.364;2023-05-15T03:05:44;13.70;99.90
8269;DHT22;4174;48.304;16.364;2023-05-15T03:11:48;13.70;99.90
8269;DHT22;4174;48.304;16.364;2023-05-15T03:17:52;13.70;99.90
8269;DHT22;4174;48.304;16.364;2023-05-15T03:23:55;13.60;99.90
8269;DHT22;4174;48.304;16.364;2023-05-15T03:29:59;13.60;99.90
8269;DHT22;4174;48.304;16.364;2023-05-15T03:36:06;13.60;99.90
8269;DHT22;4174;48.304;16.364;2023-05-15T03:42:09;13.50;99.90
8269;DHT22;4174;48.304;16.364;2023-05-15T03:48:13;13.40;99.90
8269;DHT22;4174;48.304;16.364;2023-05-15T03:54:17;13.30;99.90
8269;DHT22;4174;48.304;16.364;2023-05-15T04:00:21;13.30;99.90
8269;DHT22;4174;48.304;16.364;2023-05-15T04:06:26;13.20;99.90
8269;DHT22;4174;48.304;16.364;2023-05-15T04:12:31;13.30;99.90
8269;DHT22;4174;48.304;16.364;2023-05-15T04:18:33;13.40;99.90
8269;DHT22;4174;48.304;16.364;2023-05-15T04:24:38;13.40;99.90
8269;DHT22;4174;48.304;16.364;2023-05-15T04:30:41;13.40;99.90
8269;DHT22;4174;48.304;16.364;2023-05-15T04:36:46;13.40;99.90
8269;DHT22;4174;48.304;16.364;2023-05-15T04:42:49;13.40;99.90
8269;DHT22;4174;48.304;16.364;2023-05-15T04:48:53;13.50;99.90
8269;DHT22;4174;48.304;16.364;2023-05-15T04:54:56;13.30;99.90
8269;DHT22;4174;48.304;16.364;2023-05-15T05:01:00;13.50;99.90
8269;DHT22;4174;48.304;16.364;2023-05-15T05:07:04;13.40;99.90
8269;DHT22;4174;48.304;16.364;2023-05-15T05:13:08;13.50;99.90
8269;DHT22;4174;48.304;16.364;2023-05-15T05:19:12;13.60;99.90
8269;DHT22;4174;48.304;16.364;2023-05-15T05:25:16;13.60;99.90
8269;DHT22;4174;48.304;16.364;2023-05-15T05:31:21;13.60;99.90
8269;DHT22;4174;48.304;16.364;2023-05-15T05:37:24;13.60;99.90
8269;DHT22;4174;48.304;16.364;2023-05-15T05:43:29;13.60;99.90
8269;DHT22;4174;48.304;16.364;2023-05-15T05:49:31;13.40;99.90
8269;DHT22;4174;48.304;16.364;2023-05-15T05:55:35;13.40;99.90
8269;DHT22;4174;48.304;16.364;2023-05-15T06:01:38;13.40;99.90
8269;DHT22;4174;48.304;16.364;2023-05-15T06:07:42;13.40;99.90
8269;DHT22;4174;48.304;16.364;2023-05-15T06:13:46;13.40;99.90
8269;DHT22;4174;48.304;16.364;2023-05-15T06:19:50;13.60;99.90
8269;DHT22;4174;48.304;16.364;2023-05-15T06:25:53;13.70;99.90
8269;DHT22;4174;48.304;16.364;2023-05-15T06:31:58;13.40;99.90
8269;DHT22;4174;48.304;16.364;2023-05-15T06:38:01;13.30;99.90
8269;DHT22;4174;48.304;16.364;2023-05-15T06:44:05;13.20;99.90
8269;DHT22;4174;48.304;16.364;2023-05-15T06:50:10;13.40;99.90
8269;DHT22;4174;48.304;16.364;2023-05-15T06:56:14;13.50;99.90
8269;DHT22;4174;48.304;16.364;2023-05-15T07:02:17;13.70;99.90
8269;DHT22;4174;48.304;16.364;2023-05-15T07:08:21;13.80;99.90
8269;DHT22;4174;48.304;16.364;2023-05-15T07:14:25;13.80;99.90
8269;DHT22;4174;48.304;16.364;2023-05-15T07:20:28;13.70;99.90
8269;DHT22;4174;48.304;16.364;2023-05-15T07:26:32;14.00;99.90
8269;DHT22;4174;48.304;16.364;2023-05-15T07:32:36;14.60;99.90
8269;DHT22;4174;48.304;16.364;2023-05-15T07:38:40;15.50;99.90
8269;DHT22;4174;48.304;16.364;2023-05-15T07:44:44;16.10;99.90
8269;DHT22;4174;48.304;16.364;2023-05-15T07:50:47;16.00;99.90
8269;DHT22;4174;48.304;16.364;2023-05-15T07:56:51;15.90;99.90
8269;DHT22;4174;48.304;16.364;2023-05-15T08:02:55;15.70;99.90
8269;DHT22;4174;48.304;16.364;2023-05-15T08:08:59;16.00;99.90
8269;DHT22;4174;48.304;16.364;2023-05-15T08:15:02;15.90;99.90
8269;DHT22;4174;48.304;16.364;2023-05-15T08:21:07;16.50;99.90
8269;DHT22;4174;48.304;16.364;2023-05-15T08:27:10;16.80;99.90
8269;DHT22;4174;48.304;16.364;2023-05-15T08:33:14;17.20;99.90
8269;DHT22;4174;48.304;16.364;2023-05-15T08:39:17;17.10;99.90
8269;DHT22;4174;48.304;16.364;2023-05-15T08:45:21;17.60;99.90
8269;DHT22;4174;48.304;16.364;2023-05-15T08:51:25;17.50;99.90
8269;DHT22;4174;48.304;16.364;2023-05-15T08:57:28;18.80;99.90
8269;DHT22;4174;48.304;16.364;2023-05-15T09:03:31;20.40;99.90
8269;DHT22;4174;48.304;16.364;2023-05-15T09:09:34;20.50;99.90
8269;DHT22;4174;48.304;16.364;2023-05-15T09:15:37;18.60;99.90
8269;DHT22;4174;48.304;16.364;2023-05-15T09:21:41;17.50;99.90
8269;DHT22;4174;48.304;16.364;2023-05-15T09:27:48;17.00;99.90
8269;DHT22;4174;48.304;16.364;2023-05-15T09:33:57;17.00;99.90
8269;DHT22;4174;48.304;16.364;2023-05-15T09:39:54;17.20;99.90
8269;DHT22;4174;48.304;16.364;2023-05-15T09:45:58;15.90;99.90
8269;DHT22;4174;48.304;16.364;2023-05-15T09:52:07;15.90;99.90
8269;DHT22;4174;48.304;16.364;2023-05-15T09:58:11;15.90;99.90
8269;DHT22;4174;48.304;16.364;2023-05-15T10:04:13;15.50;99.90
8269;DHT22;4174;48.304;16.364;2023-05-15T10:10:16;15.80;99.90
8269;DHT22;4174;48.304;16.364;2023-05-15T10:16:20;19.30;99.90
8269;DHT22;4174;48.304;16.364;2023-05-15T10:22:23;19.30;99.90
8269;DHT22;4174;48.304;16.364;2023-05-15T10:28:26;20.50;99.90
8269;DHT22;4174;48.304;16.364;2023-05-15T10:34:30;21.00;99.90
8269;DHT22;4174;48.304;16.364;2023-05-15T10:40:35;21.00;99.90
8269;DHT22;4174;48.304;16.364;2023-05-15T10:46:37;21.40;99.90
8269;DHT22;4174;48.304;16.364;2023-05-15T10:52:40;21.80;99.90
8269;DHT22;4174;48.304;16.364;2023-05-15T10:58:46;20.20;99.90
8269;DHT22;4174;48.304;16.364;2023-05-15T11:04:53;20.20;99.90
8269;DHT22;4174;48.304;16.364;2023-05-15T11:10:58;19.10;99.90
8269;DHT22;4174;48.304;16.364;2023-05-15T11:17:04;18.00;99.90
8269;DHT22;4174;48.304;16.364;2023-05-15T11:23:07;18.00;99.90
8269;DHT22;4174;48.304;16.364;2023-05-15T11:29:17;18.00;99.90
8269;DHT22;4174;48.304;16.364;2023-05-15T11:35:22;19.20;99.90
8269;DHT22;4174;48.304;16.364;2023-05-15T11:41:29;20.00;99.90
8269;DHT22;4174;48.304;16.364;2023-05-15T11:47:28;20.80;99.90
8269;DHT22;4174;48.304;16.364;2023-05-15T11:53:30;21.50;99.90
8269;DHT22;4174;48.304;16.364;2023-05-15T11:59:32;21.80;99.90
8269;DHT22;4174;48.304;16.364;2023-05-15T12:05:39;22.40;99.90
8269;DHT22;4174;48.304;16.364;2023-05-15T12:11:39;22.30;99.90
8269;DHT22;4174;48.304;16.364;2023-05-15T12:17:43;21.10;99.90
8269;DHT22;4174;48.304;16.364;2023-05-15T12:23:50;20.10;99.90
8269;DHT22;4174;48.304;16.364;2023-05-15T12:29:53;20.10;99.90
8269;DHT22;4174;48.304;16.364;2023-05-15T12:35:56;20.90;99.90
8269;DHT22;4174;48.304;16.364;2023-05-15T12:41:59;21.60;99.90
8269;DHT22;4174;48.304;16.364;2023-05-15T12:48:04;21.50;99.90
8269;DHT22;4174;48.304;16.364;2023-05-15T12:54:15;21.70;99.90
8269;DHT22;4174;48.304;16.364;2023-05-15T13:00:17;22.00;99.90
8269;DHT22;4174;48.304;16.364;2023-05-15T13:06:21;21.30;99.90
8269;DHT22;4174;48.304;16.364;2023-05-15T13:12:23;21.30;99.90
8269;DHT22;4174;48.304;16.364;2023-05-15T13:18:27;21.90;99.90
8269;DHT22;4174;48.304;16.364;2023-05-15T13:24:30;21.70;99.90
8269;DHT22;4174;48.304;16.364;2023-05-15T13:30:33;21.80;99.90
8269;DHT22;4174;48.304;16.364;2023-05-15T13:36:36;21.40;99.90
8269;DHT22;4174;48.304;16.364;2023-05-15T13:42:40;21.50;99.90
8269;DHT22;4174;48.304;16.364;2023-05-15T13:48:42;21.40;99.90
8269;DHT22;4174;48.304;16.364;2023-05-15T13:54:46;21.20;99.90
8269;DHT22;4174;48.304;16.364;2023-05-15T14:00:50;20.80;99.90
8269;DHT22;4174;48.304;16.364;2023-05-15T14:06:53;20.90;99.90
8269;DHT22;4174;48.304;16.364;2023-05-15T14:12:57;20.70;99.90
8269;DHT22;4174;48.304;16.364;2023-05-15T14:19:00;20.40;99.90
8269;DHT22;4174;48.304;16.364;2023-05-15T14:25:05;20.40;99.90
8269;DHT22;4174;48.304;16.364;2023-05-15T14:31:09;20.80;99.90
8269;DHT22;4174;48.304;16.364;2023-05-15T14:37:14;20.70;99.90
8269;DHT22;4174;48.304;16.364;2023-05-15T14:43:19;20.70;99.90
8269;DHT22;4174;48.304;16.364;2023-05-15T14:49:23;20.10;99.90
8269;DHT22;4174;48.304;16.364;2023-05-15T14:55:28;19.40;99.90
8269;DHT22;4174;48.304;16.364;2023-05-15T15:01:31;19.30;99.90
8269;DHT22;4174;48.304;16.364;2023-05-15T15:13:55;19.60;99.90
8269;DHT22;4174;48.304;16.364;2023-05-15T15:19:59;19.50;99.90
8269;DHT22;4174;48.304;16.364;2023-05-15T15:26:02;19.30;99.90
8269;DHT22;4174;48.304;16.364;2023-05-15T15:32:07;19.00;99.90
8269;DHT22;4174;48.304;16.364;2023-05-15T15:38:10;18.90;99.90
8269;DHT22;4174;48.304;16.364;2023-05-15T15:44:14;18.80;99.90
8269;DHT22;4174;48.304;16.364;2023-05-15T15:50:18;18.70;99.90
8269;DHT22;4174;48.304;16.364;2023-05-15T15:56:21;18.60;99.90
8269;DHT22;4174;48.304;16.364;2023-05-15T16:02:25;18.40;99.90
8269;DHT22;4174;48.304;16.364;2023-05-15T16:08:28;18.30;99.90
8269;DHT22;4174;48.304;16.364;2023-05-15T16:14:32;18.20;99.90
8269;DHT22;4174;48.304;16.364;2023-05-15T16:20:35;18.00;99.90
8269;DHT22;4174;48.304;16.364;2023-05-15T16:26:40;18.20;99.90
8269;DHT22;4174;48.304;16.364;2023-05-15T16:32:43;18.50;99.90
8269;DHT22;4174;48.304;16.364;2023-05-15T16:38:46;18.50;99.90
8269;DHT22;4174;48.304;16.364;2023-05-15T16:44:51;18.70;99.90
8269;DHT22;4174;48.304;16.364;2023-05-15T16:50:54;18.60;99.90
8269;DHT22;4174;48.304;16.364;2023-05-15T16:56:58;18.70;99.90
8269;DHT22;4174;48.304;16.364;2023-05-15T17:03:01;18.80;99.90
8269;DHT22;4174;48.304;16.364;2023-05-15T17:09:05;18.80;99.90
8269;DHT22;4174;48.304;16.364;2023-05-15T17:15:09;18.80;99.90
8269;DHT22;4174;48.304;16.364;2023-05-15T17:21:13;18.80;99.90
8269;DHT22;4174;48.304;16.364;2023-05-15T17:27:16;18.60;99.90
8269;DHT22;4174;48.304;16.364;2023-05-15T17:33:20;18.20;99.90
8269;DHT22;4174;48.304;16.364;2023-05-15T17:39:24;18.10;99.90
8269;DHT22;4174;48.304;16.364;2023-05-15T17:45:27;18.20;99.90
8269;DHT22;4174;48.304;16.364;2023-05-15T17:51:31;18.10;99.90
8269;DHT22;4174;48.304;16.364;2023-05-15T17:57:34;18.10;99.90
8269;DHT22;4174;48.304;16.364;2023-05-15T18:03:38;17.90;99.90
8269;DHT22;4174;48.304;16.364;2023-05-15T18:09:42;17.70;99.90
8269;DHT22;4174;48.304;16.364;2023-05-15T18:15:46;17.60;99.90
8269;DHT22;4174;48.304;16.364;2023-05-15T18:21:50;17.50;99.90
8269;DHT22;4174;48.304;16.364;2023-05-15T18:27:53;17.50;99.90
8269;DHT22;4174;48.304;16.364;2023-05-15T18:33:59;17.00;99.90
8269;DHT22;4174;48.304;16.364;2023-05-15T18:40:00;16.80;99.90
8269;DHT22;4174;48.304;16.364;2023-05-15T18:46:04;16.60;99.90
8269;DHT22;4174;48.304;16.364;2023-05-15T18:52:07;16.40;99.90
8269;DHT22;4174;48.304;16.364;2023-05-15T18:58:10;16.30;99.90
8269;DHT22;4174;48.304;16.364;2023-05-15T19:04:14;16.20;99.90
8269;DHT22;4174;48.304;16.364;2023-05-15T19:10:18;16.10;99.90
8269;DHT22;4174;48.304;16.364;2023-05-15T19:16:21;15.90;99.90
8269;DHT22;4174;48.304;16.364;2023-05-15T19:22:25;15.80;99.90
8269;DHT22;4174;48.304;16.364;2023-05-15T19:28:29;15.60;99.90
8269;DHT22;4174;48.304;16.364;2023-05-15T19:34:33;15.50;99.90
8269;DHT22;4174;48.304;16.364;2023-05-15T19:40:37;15.40;99.90
8269;DHT22;4174;48.304;16.364;2023-05-15T19:46:40;15.30;99.90
8269;DHT22;4174;48.304;16.364;2023-05-15T19:52:44;15.20;99.90
8269;DHT22;4174;48.304;16.364;2023-05-15T19:58:48;15.10;99.90
8269;DHT22;4174;48.304;16.364;2023-05-15T20:04:52;15.10;99.90
8269;DHT22;4174;48.304;16.364;2023-05-15T20:10:55;15.00;99.90
8269;DHT22;4174;48.304;16.364;2023-05-15T20:16:58;14.90;99.90
8269;DHT22;4174;48.304;16.364;2023-05-15T20:23:02;14.80;99.90
8269;DHT22;4174;48.304;16.364;2023-05-15T20:29:05;14.70;99.90
8269;DHT22;4174;48.304;16.364;2023-05-15T20:35:09;14.70;99.90
8269;DHT22;4174;48.304;16.364;2023-05-15T20:41:13;14.70;99.90
8269;DHT22;4174;48.304;16.364;2023-05-15T20:47:17;14.60;99.90
8269;DHT22;4174;48.304;16.364;2023-05-15T20:53:21;14.60;99.90
8269;DHT22;4174;48.304;16.364;2023-05-15T20:59:24;14.60;99.90
8269;DHT22;4174;48.304;16.364;2023-05-15T21:05:28;14.50;99.90
8269;DHT22;4174;48.304;16.364;2023-05-15T21:11:32;14.40;99.90
8269;DHT22;4174;48.304;16.364;2023-05-15T21:17:36;14.20;99.90
8269;DHT22;4174;48.304;16.364;2023-05-15T21:23:39;14.30;99.90
8269;DHT22;4174;48.304;16.364;2023-05-15T21:29:42;14.30;99.90
8269;DHT22;4174;48.304;16.364;2023-05-15T21:35:45;14.30;99.90
8269;DHT22;4174;48.304;16.364;2023-05-15T21:41:48;14.20;99.90
8269;DHT22;4174;48.304;16.364;2023-05-15T21:47:52;13.90;99.90
8269;DHT22;4174;48.304;16.364;2023-05-15T21:53:55;14.00;99.90
8269;DHT22;4174;48.304;16.364;2023-05-15T21:59:59;14.00;99.90
8269;DHT22;4174;48.304;16.364;2023-05-15T22:06:03;14.10;99.90
8269;DHT22;4174;48.304;16.364;2023-05-15T22:12:07;14.20;99.90
8269;DHT22;4174;48.304;16.364;2023-05-15T22:18:11;14.40;99.90
8269;DHT22;4174;48.304;16.364;2023-05-15T22:24:13;14.40;99.90
8269;DHT22;4174;48.304;16.364;2023-05-15T22:30:17;14.40;99.90
8269;DHT22;4174;48.304;16.364;2023-05-15T22:36:21;14.50;99.90
8269;DHT22;4174;48.304;16.364;2023-05-15T22:42:24;14.40;99.90
8269;DHT22;4174;48.304;16.364;2023-05-15T22:48:31;14.40;99.90
8269;DHT22;4174;48.304;16.364;2023-05-15T22:54:34;14.40;99.90
8269;DHT22;4174;48.304;16.364;2023-05-15T23:00:38;14.50;99.90
8269;DHT22;4174;48.304;16.364;2023-05-15T23:06:41;14.40;99.90
8269;DHT22;4174;48.304;16.364;2023-05-15T23:12:44;14.20;99.90
8269;DHT22;4174;48.304;16.364;2023-05-15T23:18:48;14.20;99.90
8269;DHT22;4174;48.304;16.364;2023-05-15T23:24:51;14.20;99.90
8269;DHT22;4174;48.304;16.364;2023-05-15T23:30:54;14.30;99.90
8269;DHT22;4174;48.304;16.364;2023-05-15T23:36:58;14.20;99.90
8269;DHT22;4174;48.304;16.364;2023-05-15T23:43:01;14.20;99.90
8269;DHT22;4174;48.304;16.364;2023-05-15T23:49:04;14.30;99.90
8269;DHT22;4174;48.304;16.364;2023-05-15T23:55:09;14.40;99.90
